createdAt,value
2023-05-06T00:00:29.913Z,11.78
2023-05-06T00:02:31.587Z,11.88
2023-05-06T00:04:33.384Z,11.95
2023-05-06T00:06:35.110Z,11.98
2023-05-06T00:08:36.700Z,12.04
2023-05-06T00:10:38.279Z,12.07
2023-05-06T00:12:39.898Z,12.08
2023-05-06T00:14:41.469Z,12.10
2023-05-06T00:16:43.090Z,12.11
2023-05-06T00:18:44.660Z,12.14
2023-05-06T00:20:46.218Z,12.16
2023-05-06T00:22:48.014Z,12.16
2023-05-06T00:24:49.542Z,12.12
2023-05-06T00:26:51.110Z,12.08
2023-05-06T00:28:52.678Z,12.09
2023-05-06T00:30:54.210Z,12.10
2023-05-06T00:32:56.159Z,12.07
2023-05-06T00:34:57.832Z,12.06
2023-05-06T00:36:59.447Z,12.08
2023-05-06T00:39:00.960Z,12.13
2023-05-06T00:41:03.450Z,12.12
2023-05-06T00:43:05.249Z,12.13
2023-05-06T00:45:25.859Z,12.10
2023-05-06T00:47:27.730Z,12.09
2023-05-06T00:49:29.608Z,12.12
2023-05-06T00:51:31.294Z,12.11
2023-05-06T00:53:33.491Z,12.09
2023-05-06T00:55:35.112Z,12.09
2023-05-06T00:57:36.732Z,12.12
2023-05-06T00:59:38.536Z,12.10
2023-05-06T01:01:40.493Z,12.06
2023-05-06T01:03:42.312Z,12.02
2023-05-06T01:05:55.258Z,12.02
2023-05-06T01:08:02.753Z,12.04
2023-05-06T01:10:23.106Z,12.04
2023-05-06T01:12:51.214Z,12.00
2023-05-06T01:15:17.178Z,12.01
2023-05-06T01:17:19.548Z,12.00
2023-05-06T01:19:34.926Z,11.82
2023-05-06T01:21:38.016Z,11.71
2023-05-06T01:23:57.921Z,11.52
2023-05-06T01:26:00.004Z,11.08
2023-05-06T01:28:01.689Z,10.91
2023-05-06T01:30:03.932Z,10.88
2023-05-06T01:32:30.132Z,10.99
2023-05-06T01:34:42.165Z,11.08
2023-05-06T01:37:02.212Z,11.14
2023-05-06T01:39:09.686Z,11.22
2023-05-06T01:41:16.026Z,11.21
2023-05-06T01:43:18.833Z,11.17
2023-05-06T01:45:21.082Z,11.16
2023-05-06T01:47:23.306Z,11.12
2023-05-06T01:49:26.162Z,11.15
2023-05-06T01:51:28.317Z,11.17
2023-05-06T01:53:29.917Z,11.18
2023-05-06T01:55:32.245Z,11.22
2023-05-06T01:57:33.871Z,11.26
2023-05-06T01:59:35.441Z,11.30
2023-05-06T02:01:37.027Z,11.30
2023-05-06T02:03:38.729Z,11.33
2023-05-06T02:05:40.349Z,11.36
2023-05-06T02:07:42.004Z,11.38
2023-05-06T02:09:43.597Z,11.39
2023-05-06T02:11:45.323Z,11.40
2023-05-06T02:13:47.034Z,11.43
2023-05-06T02:15:55.604Z,11.41
2023-05-06T02:17:57.356Z,11.43
2023-05-06T02:19:59.359Z,11.44
2023-05-06T02:22:00.892Z,11.45
2023-05-06T02:24:02.548Z,11.45
2023-05-06T02:26:04.486Z,11.45
2023-05-06T02:28:06.163Z,11.44
2023-05-06T02:30:08.120Z,11.39
2023-05-06T02:32:09.681Z,11.39
2023-05-06T02:34:11.337Z,11.38
2023-05-06T02:36:13.144Z,11.36
2023-05-06T02:38:14.856Z,11.36
2023-05-06T02:40:16.516Z,11.39
2023-05-06T02:42:18.236Z,11.41
2023-05-06T02:44:19.899Z,11.35
2023-05-06T02:46:21.590Z,11.29
2023-05-06T02:48:23.664Z,11.27
2023-05-06T02:50:25.522Z,11.24
2023-05-06T02:52:27.101Z,11.25
2023-05-06T02:54:28.746Z,11.26
2023-05-06T02:56:31.193Z,11.23
2023-05-06T02:58:32.821Z,11.24
2023-05-06T03:00:34.766Z,11.26
2023-05-06T03:02:36.575Z,11.25
2023-05-06T03:04:38.256Z,11.21
2023-05-06T03:06:40.154Z,11.19
2023-05-06T03:08:41.731Z,11.22
2023-05-06T03:10:43.273Z,11.21
2023-05-06T03:12:44.848Z,11.21
2023-05-06T03:14:46.447Z,11.23
2023-05-06T03:16:48.196Z,11.17
2023-05-06T03:18:49.812Z,11.22
2023-05-06T03:20:51.545Z,11.18
2023-05-06T03:22:53.504Z,11.23
2023-05-06T03:24:55.061Z,11.27
2023-05-06T03:26:58.551Z,11.21
2023-05-06T03:29:00.198Z,11.16
2023-05-06T03:31:01.771Z,11.17
2023-05-06T03:33:03.555Z,11.20
2023-05-06T03:35:06.763Z,11.24
2023-05-06T03:37:08.340Z,11.27
2023-05-06T03:39:10.326Z,11.27
2023-05-06T03:41:12.073Z,11.31
2023-05-06T03:43:13.649Z,11.30
2023-05-06T03:45:15.312Z,11.32
2023-05-06T03:47:17.317Z,11.35
2023-05-06T03:49:20.718Z,11.39
2023-05-06T03:51:22.471Z,11.43
2023-05-06T03:53:24.104Z,11.42
2023-05-06T03:55:25.796Z,11.45
2023-05-06T03:57:27.339Z,11.47
2023-05-06T03:59:28.933Z,11.48
2023-05-06T04:01:30.591Z,11.47
2023-05-06T04:03:32.259Z,11.46
2023-05-06T04:05:33.947Z,11.48
2023-05-06T04:07:35.653Z,11.52
2023-05-06T04:09:37.310Z,11.57
2023-05-06T04:11:38.885Z,11.63
2023-05-06T04:13:40.459Z,11.64
2023-05-06T04:15:42.677Z,11.67
2023-05-06T04:17:44.297Z,11.35
2023-05-06T04:19:46.041Z,11.13
2023-05-06T04:21:47.637Z,11.17
2023-05-06T04:23:49.677Z,11.35
2023-05-06T04:25:51.286Z,11.55
2023-05-06T04:27:53.389Z,11.75
2023-05-06T04:29:54.987Z,11.93
2023-05-06T04:31:56.971Z,12.06
2023-05-06T04:33:59.208Z,12.17
2023-05-06T04:36:00.963Z,12.27
2023-05-06T04:38:02.596Z,12.39
2023-05-06T04:40:04.683Z,12.47
2023-05-06T04:42:06.488Z,12.53
2023-05-06T04:44:08.095Z,12.58
2023-05-06T04:46:10.647Z,12.62
2023-05-06T04:48:12.352Z,12.65
2023-05-06T04:50:14.065Z,12.72
2023-05-06T04:52:15.629Z,12.77
2023-05-06T04:54:17.254Z,12.76
2023-05-06T04:56:18.914Z,12.80
2023-05-06T04:58:20.602Z,12.91
2023-05-06T05:00:22.729Z,12.99
2023-05-06T05:02:24.444Z,13.10
2023-05-06T05:04:26.571Z,13.14
2023-05-06T05:06:28.104Z,13.28
2023-05-06T05:08:29.800Z,13.44
2023-05-06T05:10:31.524Z,13.58
2023-05-06T05:12:33.104Z,13.68
2023-05-06T05:14:34.731Z,13.72
2023-05-06T05:16:36.386Z,13.76
2023-05-06T05:18:38.042Z,13.92
2023-05-06T05:20:39.687Z,14.10
2023-05-06T05:22:41.262Z,14.17
2023-05-06T05:24:42.914Z,14.04
2023-05-06T05:26:44.518Z,14.02
2023-05-06T05:28:46.229Z,13.66
2023-05-06T05:30:47.840Z,13.19
2023-05-06T05:32:49.553Z,13.04
2023-05-06T05:34:51.288Z,12.87
2023-05-06T05:36:53.036Z,12.83
2023-05-06T05:38:54.619Z,12.78
2023-05-06T05:40:56.286Z,12.75
2023-05-06T05:42:57.850Z,12.93
2023-05-06T05:45:00.136Z,13.02
2023-05-06T05:47:02.475Z,13.17
2023-05-06T05:49:04.019Z,13.27
2023-05-06T05:51:05.806Z,13.39
2023-05-06T05:53:07.367Z,13.43
2023-05-06T05:55:09.603Z,13.47
2023-05-06T05:57:11.365Z,13.51
2023-05-06T05:59:13.032Z,13.23
2023-05-06T06:01:14.726Z,12.92
2023-05-06T06:03:18.138Z,12.90
2023-05-06T06:05:19.812Z,12.97
2023-05-06T06:07:21.366Z,12.94
2023-05-06T06:09:22.994Z,12.96
2023-05-06T06:11:26.897Z,12.99
2023-05-06T06:13:29.116Z,13.14
2023-05-06T06:15:31.753Z,13.28
2023-05-06T06:17:33.333Z,13.36
2023-05-06T06:19:34.877Z,13.28
2023-05-06T06:21:36.894Z,13.29
2023-05-06T06:23:38.478Z,13.29
2023-05-06T06:25:40.072Z,13.36
2023-05-06T06:27:41.688Z,13.44
2023-05-06T06:29:43.305Z,13.39
2023-05-06T06:31:44.934Z,13.29
2023-05-06T06:33:46.501Z,13.16
2023-05-06T06:35:48.142Z,13.28
2023-05-06T06:37:49.833Z,13.28
2023-05-06T06:39:51.358Z,13.30
2023-05-06T06:41:56.684Z,13.22
2023-05-06T06:43:58.303Z,13.38
2023-05-06T06:46:00.238Z,13.45
2023-05-06T06:48:01.938Z,13.59
2023-05-06T06:50:03.734Z,13.77
2023-05-06T06:52:06.035Z,13.91
2023-05-06T06:54:07.703Z,14.05
2023-05-06T06:56:12.266Z,14.14
2023-05-06T06:58:14.028Z,14.21
2023-05-06T07:00:16.092Z,14.23
2023-05-06T07:02:17.694Z,14.26
2023-05-06T07:04:19.453Z,14.30
2023-05-06T07:06:21.100Z,14.30
2023-05-06T07:08:22.774Z,14.40
2023-05-06T07:10:24.443Z,14.46
2023-05-06T07:12:26.926Z,14.25
2023-05-06T07:14:28.554Z,14.28
2023-05-06T07:16:30.144Z,14.34
2023-05-06T07:18:31.802Z,14.52
2023-05-06T07:20:33.545Z,14.70
2023-05-06T07:22:35.147Z,14.85
2023-05-06T07:24:36.795Z,14.89
2023-05-06T07:26:38.452Z,14.99
2023-05-06T07:28:40.062Z,15.09
2023-05-06T07:30:42.227Z,15.08
2023-05-06T07:32:43.854Z,15.03
2023-05-06T07:34:45.476Z,15.15
2023-05-06T07:36:47.077Z,15.26
2023-05-06T07:38:48.708Z,15.44
2023-05-06T07:40:51.382Z,15.48
2023-05-06T07:42:53.110Z,15.26
2023-05-06T07:44:54.694Z,15.19
2023-05-06T07:46:56.429Z,15.06
2023-05-06T07:48:58.142Z,15.17
2023-05-06T07:51:00.045Z,15.41
2023-05-06T07:53:01.884Z,15.70
2023-05-06T07:55:04.379Z,15.80
2023-05-06T07:57:05.974Z,15.86
2023-05-06T07:59:07.587Z,15.64
2023-05-06T08:01:09.243Z,15.87
2023-05-06T08:03:10.952Z,15.80
2023-05-06T08:05:13.636Z,15.26
2023-05-06T08:07:15.893Z,15.29
2023-05-06T08:09:22.738Z,15.59
2023-05-06T08:11:24.929Z,15.98
2023-05-06T08:13:27.088Z,16.33
2023-05-06T08:15:28.825Z,16.39
2023-05-06T08:17:30.437Z,15.95
2023-05-06T08:19:32.223Z,15.52
2023-05-06T08:21:33.831Z,15.27
2023-05-06T08:23:35.433Z,15.34
2023-05-06T08:25:37.073Z,15.01
2023-05-06T08:27:38.695Z,15.13
2023-05-06T08:29:40.365Z,15.51
2023-05-06T08:31:42.889Z,15.59
2023-05-06T08:33:44.615Z,15.67
2023-05-06T08:35:46.924Z,15.87
2023-05-06T08:37:48.483Z,15.99
2023-05-06T08:39:50.255Z,15.63
2023-05-06T08:41:52.780Z,16.04
2023-05-06T08:43:55.083Z,15.92
2023-05-06T08:45:56.767Z,15.96
2023-05-06T08:47:58.500Z,16.01
2023-05-06T08:50:01.467Z,16.20
2023-05-06T08:52:06.716Z,16.24
2023-05-06T08:54:08.756Z,16.03
2023-05-06T08:56:13.586Z,16.03
2023-05-06T08:58:16.927Z,16.22
2023-05-06T09:00:18.797Z,16.57
2023-05-06T09:02:22.452Z,16.63
2023-05-06T09:04:23.944Z,16.24
2023-05-06T09:06:25.606Z,16.45
2023-05-06T09:08:27.235Z,16.88
2023-05-06T09:10:33.375Z,16.78
2023-05-06T09:12:37.999Z,16.73
2023-05-06T09:14:40.244Z,16.69
2023-05-06T09:16:43.847Z,16.90
2023-05-06T09:18:45.485Z,16.76
2023-05-06T09:20:48.477Z,17.19
2023-05-06T09:22:50.823Z,17.53
2023-05-06T09:24:57.011Z,17.66
2023-05-06T09:26:58.789Z,17.81
2023-05-06T09:29:01.259Z,17.83
2023-05-06T09:31:03.063Z,17.81
2023-05-06T09:33:05.294Z,18.13
2023-05-06T09:35:07.695Z,18.19
2023-05-06T09:37:09.402Z,18.20
2023-05-06T09:39:11.078Z,18.37
2023-05-06T09:41:13.497Z,18.49
2023-05-06T09:43:15.707Z,18.50
2023-05-06T09:45:17.932Z,18.67
2023-05-06T09:47:20.832Z,18.81
2023-05-06T09:49:22.389Z,19.05
2023-05-06T09:51:24.201Z,19.23
2023-05-06T09:53:27.582Z,19.22
2023-05-06T09:55:29.564Z,18.76
2023-05-06T09:57:32.046Z,17.98
2023-05-06T09:59:33.720Z,18.14
2023-05-06T10:01:37.655Z,18.13
2023-05-06T10:03:40.025Z,18.30
2023-05-06T10:05:42.424Z,18.40
2023-05-06T10:07:45.355Z,18.45
2023-05-06T10:09:47.083Z,18.58
2023-05-06T10:11:48.774Z,18.68
2023-05-06T10:13:50.581Z,18.74
2023-05-06T10:15:52.322Z,18.83
2023-05-06T10:17:54.356Z,18.87
2023-05-06T10:19:58.925Z,18.91
2023-05-06T10:22:08.333Z,18.85
2023-05-06T10:24:12.035Z,18.84
2023-05-06T10:26:13.545Z,18.77
2023-05-06T10:28:27.767Z,18.73
2023-05-06T10:30:33.882Z,18.56
2023-05-06T10:32:38.625Z,18.52
2023-05-06T10:34:45.035Z,18.44
2023-05-06T10:36:48.934Z,18.32
2023-05-06T10:38:54.908Z,18.32
2023-05-06T10:40:57.284Z,18.30
2023-05-06T10:43:20.892Z,18.39
2023-05-06T10:45:22.609Z,18.51
2023-05-06T10:47:24.324Z,18.26
2023-05-06T10:49:26.153Z,18.27
2023-05-06T10:51:28.639Z,18.35
2023-05-06T10:54:18.751Z,18.41
2023-05-06T10:56:20.524Z,17.93
2023-05-06T10:58:22.104Z,17.86
2023-05-06T11:00:24.214Z,18.13
2023-05-06T11:02:26.281Z,18.30
2023-05-06T11:04:30.357Z,18.51
2023-05-06T11:06:34.080Z,18.62
2023-05-06T11:08:35.582Z,18.74
2023-05-06T11:10:37.510Z,18.67
2023-05-06T11:12:50.684Z,18.85
2023-05-06T11:14:52.369Z,19.03
2023-05-06T11:16:55.545Z,19.23
2023-05-06T11:18:57.248Z,19.52
2023-05-06T11:21:02.414Z,19.65
2023-05-06T11:23:04.079Z,19.91
2023-05-06T11:25:06.630Z,19.81
2023-05-06T11:27:09.385Z,19.62
2023-05-06T11:29:11.404Z,19.44
2023-05-06T11:31:13.956Z,19.47
2023-05-06T11:33:19.481Z,19.73
2023-05-06T11:35:22.953Z,19.95
2023-05-06T11:37:29.297Z,20.08
2023-05-06T11:39:40.486Z,19.88
2023-05-06T11:41:42.760Z,19.34
2023-05-06T11:43:50.057Z,19.26
2023-05-06T11:45:51.748Z,18.97
2023-05-06T11:47:54.578Z,19.05
2023-05-06T11:49:56.507Z,19.30
2023-05-06T11:51:58.180Z,19.60
2023-05-06T11:54:10.400Z,19.54
2023-05-06T11:56:12.038Z,19.36
2023-05-06T11:58:33.127Z,19.38
2023-05-06T12:00:34.668Z,19.42
2023-05-06T12:02:36.337Z,19.41
2023-05-06T12:04:45.234Z,19.63
2023-05-06T12:06:46.858Z,19.61
2023-05-06T12:08:48.443Z,19.74
2023-05-06T12:10:51.397Z,19.63
2023-05-06T12:12:53.086Z,19.30
2023-05-06T12:14:54.872Z,19.56
2023-05-06T12:16:56.791Z,19.73
2023-05-06T12:18:58.482Z,19.95
2023-05-06T12:21:02.793Z,20.07
2023-05-06T12:23:14.792Z,20.28
2023-05-06T12:25:16.535Z,20.11
2023-05-06T12:27:34.820Z,19.76
2023-05-06T12:29:36.460Z,19.78
2023-05-06T12:31:38.110Z,19.84
2023-05-06T12:33:46.523Z,19.79
2023-05-06T12:35:49.025Z,19.69
2023-05-06T12:37:50.599Z,19.67
2023-05-06T12:39:52.169Z,19.83
2023-05-06T12:41:54.164Z,19.94
2023-05-06T12:43:55.758Z,19.65
2023-05-06T12:46:05.244Z,19.32
2023-05-06T12:48:07.255Z,19.10
2023-05-06T12:50:09.487Z,19.12
2023-05-06T12:52:11.659Z,18.98
2023-05-06T12:54:39.459Z,18.94
2023-05-06T12:56:41.036Z,18.44
2023-05-06T12:58:42.618Z,18.38
2023-05-06T13:00:44.590Z,18.51
2023-05-06T13:02:46.702Z,18.47
2023-05-06T13:04:49.448Z,18.33
2023-05-06T13:06:54.088Z,18.47
2023-05-06T13:08:55.753Z,18.58
2023-05-06T13:10:57.403Z,18.70
2023-05-06T13:12:58.992Z,18.77
2023-05-06T13:15:00.702Z,18.90
2023-05-06T13:17:04.857Z,18.75
2023-05-06T13:19:07.222Z,18.34
2023-05-06T13:21:13.178Z,18.49
2023-05-06T13:23:15.092Z,18.61
2023-05-06T13:25:16.667Z,18.47
2023-05-06T13:27:18.286Z,18.60
2023-05-06T13:29:19.947Z,18.74
2023-05-06T13:31:22.093Z,18.75
2023-05-06T13:33:23.779Z,18.81
2023-05-06T13:35:25.342Z,18.72
2023-05-06T13:37:26.887Z,18.66
2023-05-06T13:39:28.529Z,18.68
2023-05-06T13:41:30.076Z,18.63
2023-05-06T13:43:31.657Z,18.63
2023-05-06T13:45:33.717Z,18.67
2023-05-06T13:47:35.328Z,18.77
2023-05-06T13:49:36.984Z,18.69
2023-05-06T13:51:38.596Z,18.74
2023-05-06T13:53:40.233Z,18.82
2023-05-06T13:55:43.593Z,18.97
2023-05-06T13:57:45.190Z,18.91
2023-05-06T13:59:46.853Z,18.44
2023-05-06T14:01:50.068Z,18.55
2023-05-06T14:03:52.700Z,18.53
2023-05-06T14:05:54.810Z,18.63
2023-05-06T14:07:56.373Z,18.73
2023-05-06T14:09:58.555Z,18.81
2023-05-06T14:12:00.147Z,18.83
2023-05-06T14:14:02.486Z,18.87
2023-05-06T14:16:04.226Z,18.58
2023-05-06T14:18:05.958Z,18.64
2023-05-06T14:20:09.539Z,18.94
2023-05-06T14:22:11.270Z,19.31
2023-05-06T14:24:12.941Z,19.47
2023-05-06T14:26:14.588Z,19.76
2023-05-06T14:28:16.186Z,19.89
2023-05-06T14:30:17.925Z,19.95
2023-05-06T14:32:19.520Z,20.07
2023-05-06T14:34:21.194Z,19.89
2023-05-06T14:36:22.768Z,19.84
2023-05-06T14:38:24.346Z,19.86
2023-05-06T14:40:26.061Z,19.88
2023-05-06T14:42:27.644Z,19.87
2023-05-06T14:44:29.302Z,19.74
2023-05-06T14:46:31.043Z,19.33
2023-05-06T14:48:32.712Z,19.20
2023-05-06T14:50:34.540Z,19.20
2023-05-06T14:52:38.893Z,19.27
2023-05-06T14:54:42.363Z,19.35
2023-05-06T14:56:49.515Z,19.42
2023-05-06T14:58:51.554Z,19.44
2023-05-06T15:00:53.255Z,19.18
2023-05-06T15:02:54.872Z,18.77
2023-05-06T15:04:56.550Z,18.54
2023-05-06T15:06:58.208Z,18.34
2023-05-06T15:08:59.825Z,18.25
2023-05-06T15:11:03.820Z,18.21
2023-05-06T15:13:05.981Z,18.26
2023-05-06T15:15:08.362Z,18.25
2023-05-06T15:17:10.146Z,18.20
2023-05-06T15:19:11.785Z,18.16
2023-05-06T15:21:13.891Z,18.16
2023-05-06T15:23:15.474Z,18.24
2023-05-06T15:25:30.290Z,18.34
2023-05-06T15:27:37.356Z,18.29
2023-05-06T15:29:41.970Z,18.25
2023-05-06T15:31:46.792Z,18.32
2023-05-06T15:33:48.478Z,18.20
2023-05-06T15:35:50.486Z,18.21
2023-05-06T15:37:55.552Z,18.19
2023-05-06T15:39:57.220Z,18.20
2023-05-06T15:41:59.754Z,18.25
2023-05-06T15:44:02.536Z,18.33
2023-05-06T15:46:04.224Z,18.29
2023-05-06T15:48:06.034Z,18.23
2023-05-06T15:50:17.834Z,18.21
2023-05-06T15:52:29.577Z,17.95
2023-05-06T15:54:31.582Z,18.01
2023-05-06T15:56:39.397Z,18.08
2023-05-06T15:58:43.729Z,18.18
2023-05-06T16:00:45.363Z,18.25
2023-05-06T16:02:47.116Z,18.25
2023-05-06T16:04:49.103Z,18.13
2023-05-06T16:06:50.825Z,18.49
2023-05-06T16:08:52.483Z,18.80
2023-05-06T16:10:54.199Z,19.12
2023-05-06T16:12:55.807Z,19.32
2023-05-06T16:14:57.663Z,19.11
2023-05-06T16:16:59.443Z,19.04
2023-05-06T16:19:01.042Z,18.82
2023-05-06T16:21:02.742Z,18.65
2023-05-06T16:23:05.317Z,18.76
2023-05-06T16:25:07.152Z,18.82
2023-05-06T16:27:08.729Z,18.90
2023-05-06T16:29:10.595Z,18.93
2023-05-06T16:31:12.265Z,19.21
2023-05-06T16:33:14.575Z,19.35
2023-05-06T16:35:17.658Z,19.32
2023-05-06T16:37:19.269Z,19.22
2023-05-06T16:39:20.889Z,19.44
2023-05-06T16:41:22.491Z,19.08
2023-05-06T16:43:24.148Z,18.88
2023-05-06T16:45:25.829Z,18.63
2023-05-06T16:47:27.617Z,18.38
2023-05-06T16:49:29.480Z,18.37
2023-05-06T16:51:32.083Z,18.44
2023-05-06T16:53:33.701Z,18.17
2023-05-06T16:55:35.281Z,18.09
2023-05-06T16:57:36.891Z,17.94
2023-05-06T16:59:38.583Z,17.77
2023-05-06T17:01:40.249Z,17.58
2023-05-06T17:03:41.912Z,17.53
2023-05-06T17:05:43.605Z,17.54
2023-05-06T17:07:45.601Z,17.54
2023-05-06T17:09:47.160Z,17.61
2023-05-06T17:11:49.419Z,17.58
2023-05-06T17:13:51.048Z,17.43
2023-05-06T17:15:52.740Z,17.48
2023-05-06T17:17:54.432Z,17.52
2023-05-06T17:19:57.653Z,17.54
2023-05-06T17:21:59.259Z,17.52
2023-05-06T17:24:01.023Z,17.36
2023-05-06T17:26:06.414Z,17.29
2023-05-06T17:28:11.408Z,17.23
2023-05-06T17:30:14.632Z,17.24
2023-05-06T17:32:16.393Z,17.19
2023-05-06T17:34:17.977Z,17.23
2023-05-06T17:36:20.799Z,17.23
2023-05-06T17:38:22.398Z,17.24
2023-05-06T17:40:24.590Z,17.24
2023-05-06T17:42:27.556Z,17.21
2023-05-06T17:44:29.246Z,17.23
2023-05-06T17:46:31.357Z,17.19
2023-05-06T17:48:33.046Z,17.16
2023-05-06T17:50:34.665Z,17.17
2023-05-06T17:52:36.281Z,17.17
2023-05-06T17:54:38.235Z,17.20
2023-05-06T17:56:39.843Z,17.20
2023-05-06T17:58:41.465Z,17.19
2023-05-06T18:00:43.137Z,17.19
2023-05-06T18:02:45.181Z,17.18
2023-05-06T18:04:47.555Z,17.11
2023-05-06T18:06:49.111Z,17.08
2023-05-06T18:08:50.792Z,17.03
2023-05-06T18:10:52.366Z,17.02
2023-05-06T18:12:55.666Z,16.95
2023-05-06T18:14:57.668Z,16.92
2023-05-06T18:16:59.262Z,16.92
2023-05-06T18:19:02.649Z,16.92
2023-05-06T18:21:04.248Z,16.93
2023-05-06T18:23:07.498Z,16.91
2023-05-06T18:25:09.571Z,16.89
2023-05-06T18:27:12.988Z,16.84
2023-05-06T18:29:14.819Z,16.81
2023-05-06T18:31:16.498Z,16.81
2023-05-06T18:33:18.473Z,16.83
2023-05-06T18:35:20.098Z,16.82
2023-05-06T18:37:21.714Z,16.82
2023-05-06T18:39:24.067Z,16.81
2023-05-06T18:41:25.815Z,16.81
2023-05-06T18:43:27.511Z,16.79
2023-05-06T18:45:29.582Z,16.77
2023-05-06T18:47:32.248Z,16.69
2023-05-06T18:49:35.380Z,16.53
2023-05-06T18:51:37.338Z,16.43
2023-05-06T18:53:39.013Z,16.34
2023-05-06T18:55:40.608Z,16.37
2023-05-06T18:57:42.211Z,16.37
2023-05-06T18:59:43.738Z,16.41
2023-05-06T19:01:46.078Z,16.42
2023-05-06T19:03:47.728Z,16.44
2023-05-06T19:05:49.432Z,16.46
2023-05-06T19:07:51.595Z,16.44
2023-05-06T19:09:53.210Z,16.41
2023-05-06T19:11:55.526Z,16.41
2023-05-06T19:13:57.122Z,16.40
2023-05-06T19:15:58.905Z,16.38
2023-05-06T19:18:00.543Z,16.37
2023-05-06T19:20:02.145Z,16.34
2023-05-06T19:22:04.222Z,16.30
2023-05-06T19:24:06.397Z,16.26
2023-05-06T19:26:10.979Z,16.24
2023-05-06T19:28:12.568Z,16.20
2023-05-06T19:30:14.387Z,16.18
2023-05-06T19:32:16.004Z,16.13
2023-05-06T19:34:17.605Z,16.08
2023-05-06T19:36:19.141Z,16.05
2023-05-06T19:38:21.514Z,16.03
2023-05-06T19:40:23.333Z,16.02
2023-05-06T19:42:24.892Z,16.02
2023-05-06T19:44:26.940Z,15.99
2023-05-06T19:46:28.601Z,15.96
2023-05-06T19:48:30.406Z,15.95
2023-05-06T19:50:33.495Z,15.93
2023-05-06T19:52:35.193Z,15.94
2023-05-06T19:54:36.782Z,15.93
2023-05-06T19:56:39.137Z,15.93
2023-05-06T19:58:41.068Z,15.91
2023-05-06T20:00:43.448Z,15.90
2023-05-06T20:02:45.608Z,15.90
2023-05-06T20:04:47.266Z,15.90
2023-05-06T20:06:48.892Z,15.88
2023-05-06T20:08:50.517Z,15.86
2023-05-06T20:10:52.245Z,15.82
2023-05-06T20:12:56.081Z,15.74
2023-05-06T20:14:59.475Z,15.73
2023-05-06T20:17:02.565Z,15.74
2023-05-06T20:19:04.339Z,15.73
2023-05-06T20:21:06.302Z,15.73
2023-05-06T20:23:07.894Z,15.69
2023-05-06T20:25:17.579Z,15.66
2023-05-06T20:27:22.701Z,15.66
2023-05-06T20:29:24.356Z,15.66
2023-05-06T20:31:26.008Z,15.59
2023-05-06T20:33:27.675Z,15.59
2023-05-06T20:35:29.266Z,15.57
2023-05-06T20:37:31.366Z,15.55
2023-05-06T20:39:33.206Z,15.54
2023-05-06T20:41:34.828Z,15.54
2023-05-06T20:43:36.530Z,15.55
2023-05-06T20:45:38.181Z,15.53
2023-05-06T20:47:39.864Z,15.50
2023-05-06T20:49:41.540Z,15.50
2023-05-06T20:51:43.183Z,15.48
2023-05-06T20:53:46.224Z,15.50
2023-05-06T20:55:47.941Z,15.47
2023-05-06T20:57:49.993Z,15.47
2023-05-06T20:59:52.629Z,15.47
2023-05-06T21:01:54.687Z,15.48
2023-05-06T21:03:56.698Z,15.48
2023-05-06T21:05:58.286Z,15.47
2023-05-06T21:07:59.912Z,15.45
2023-05-06T21:10:03.864Z,15.43
2023-05-06T21:12:05.686Z,15.41
2023-05-06T21:14:07.511Z,15.41
2023-05-06T21:16:09.122Z,15.42
2023-05-06T21:18:11.046Z,15.43
2023-05-06T21:20:13.183Z,15.45
2023-05-06T21:22:15.389Z,15.43
2023-05-06T21:24:17.077Z,15.40
2023-05-06T21:26:18.607Z,15.38
2023-05-06T21:28:20.187Z,15.36
2023-05-06T21:30:22.269Z,15.35
2023-05-06T21:32:23.890Z,15.31
2023-05-06T21:34:26.561Z,15.29
2023-05-06T21:36:28.140Z,15.26
2023-05-06T21:38:29.696Z,15.23
2023-05-06T21:40:31.510Z,15.20
2023-05-06T21:42:33.145Z,15.20
2023-05-06T21:44:34.719Z,15.19
2023-05-06T21:46:37.819Z,15.18
2023-05-06T21:48:39.642Z,15.14
2023-05-06T21:50:41.248Z,15.11
2023-05-06T21:52:42.927Z,15.08
2023-05-06T21:54:46.122Z,15.05
2023-05-06T21:56:47.700Z,15.02
2023-05-06T21:58:49.388Z,14.99
2023-05-06T22:00:52.290Z,14.97
2023-05-06T22:02:54.518Z,14.94
2023-05-06T22:04:56.634Z,14.94
2023-05-06T22:06:58.284Z,14.97
2023-05-06T22:08:59.842Z,14.92
2023-05-06T22:11:01.838Z,14.91
2023-05-06T22:13:03.834Z,14.93
2023-05-06T22:15:07.101Z,14.98
2023-05-06T22:17:10.570Z,15.00
2023-05-06T22:19:14.346Z,15.00
2023-05-06T22:21:15.941Z,14.97
2023-05-06T22:23:19.217Z,14.94
2023-05-06T22:25:20.918Z,14.92
2023-05-06T22:27:22.640Z,14.89
2023-05-06T22:29:24.173Z,14.85
2023-05-06T22:31:25.911Z,14.86
2023-05-06T22:33:27.825Z,14.90
2023-05-06T22:35:29.412Z,14.85
2023-05-06T22:37:31.151Z,14.85
2023-05-06T22:39:32.734Z,14.85
2023-05-06T22:41:34.343Z,14.85
2023-05-06T22:43:35.907Z,14.81
2023-05-06T22:45:37.546Z,14.84
2023-05-06T22:47:39.356Z,14.80
2023-05-06T22:49:40.905Z,14.69
2023-05-06T22:51:42.555Z,14.58
2023-05-06T22:53:44.287Z,14.44
2023-05-06T22:55:45.814Z,14.11
2023-05-06T22:57:50.107Z,13.66
2023-05-06T22:59:51.701Z,13.14
2023-05-06T23:01:53.364Z,12.78
2023-05-06T23:03:55.098Z,12.90
2023-05-06T23:05:56.957Z,12.99
2023-05-06T23:07:58.543Z,12.92
2023-05-06T23:10:00.208Z,12.99
2023-05-06T23:12:02.788Z,12.91
2023-05-06T23:14:04.698Z,12.74
2023-05-06T23:16:07.816Z,12.85
2023-05-06T23:18:09.461Z,12.75
2023-05-06T23:20:12.903Z,12.69
2023-05-06T23:22:14.578Z,12.48
2023-05-06T23:24:16.139Z,12.48
2023-05-06T23:26:17.882Z,12.31
2023-05-06T23:28:19.728Z,12.27
2023-05-06T23:30:21.356Z,12.16
2023-05-06T23:32:22.975Z,12.18
2023-05-06T23:34:24.641Z,12.35
2023-05-06T23:36:27.395Z,12.54
2023-05-06T23:38:29.117Z,12.74
2023-05-06T23:40:30.802Z,12.87
2023-05-06T23:42:32.403Z,12.99
2023-05-06T23:44:33.982Z,13.05
2023-05-06T23:46:35.759Z,13.02
2023-05-06T23:48:37.680Z,12.83
2023-05-06T23:50:39.396Z,12.72
2023-05-06T23:52:41.217Z,12.61
2023-05-06T23:54:42.910Z,12.52
2023-05-06T23:56:44.880Z,12.04
2023-05-06T23:58:46.444Z,12.16
